Weather at Zafer Airport

Public forecast

Using degrees Celsius for public forecast. Weather courtesy of forecast.io.

Current aviation weather report (METAR) for Zafer Airport

Report is more than 6 hours old.

Retrieved 2020/06/16 06:50 UTC (2 years ago):

LTBZ 160650Z 14006KT 070V170 9999 FEW040 21/14 Q1014

Aviation forecast (TAF) for Zafer Airport

Forecast is more than 12 hours old.

Retrieved 2016/11/23 00:00 UTC (5 years ago):

TAF LTBZ 232240Z 2400/2409 VRB02KT CAVOK